createdAt,value
2022-07-29T00:00:26.026Z,47.51
2022-07-29T00:03:05.002Z,48.04
2022-07-29T00:05:33.747Z,47.43
2022-07-29T00:08:02.297Z,47.64
2022-07-29T00:10:30.881Z,47.65
2022-07-29T00:12:59.658Z,47.88
2022-07-29T00:15:28.233Z,46.39
2022-07-29T00:17:56.590Z,46.88
2022-07-29T00:20:25.140Z,46.44
2022-07-29T00:22:54.681Z,46.20
2022-07-29T00:25:23.125Z,46.13
2022-07-29T00:27:51.795Z,45.84
2022-07-29T00:30:20.312Z,46.90
2022-07-29T00:32:48.750Z,46.85
2022-07-29T00:35:35.722Z,47.06
2022-07-29T00:38:04.192Z,45.89
2022-07-29T00:40:33.071Z,46.05
2022-07-29T00:43:01.551Z,46.58
2022-07-29T00:45:31.299Z,46.27
2022-07-29T00:48:00.022Z,46.22
2022-07-29T00:50:28.429Z,45.93
2022-07-29T00:52:56.829Z,46.18
2022-07-29T00:55:25.382Z,47.62
2022-07-29T00:57:54.509Z,47.71
2022-07-29T01:00:27.049Z,49.11
2022-07-29T01:02:55.700Z,48.95
2022-07-29T01:05:50.975Z,48.76
2022-07-29T01:08:16.758Z,50.62
2022-07-29T01:10:45.735Z,50.82
2022-07-29T01:13:16.267Z,50.12
2022-07-29T01:15:49.880Z,49.27
2022-07-29T01:18:24.322Z,49.05
2022-07-29T01:21:08.136Z,48.88
2022-07-29T01:23:54.997Z,49.27
2022-07-29T01:26:55.715Z,49.58
2022-07-29T01:29:36.276Z,49.82
2022-07-29T01:32:22.579Z,49.51
2022-07-29T01:35:14.086Z,48.95
2022-07-29T01:37:48.906Z,48.58
2022-07-29T01:40:49.562Z,48.57
2022-07-29T01:43:22.846Z,48.58
2022-07-29T01:45:59.097Z,48.43
2022-07-29T01:48:50.557Z,48.48
2022-07-29T01:51:28.705Z,48.76
2022-07-29T01:54:10.207Z,48.46
2022-07-29T01:56:39.760Z,48.17
2022-07-29T01:59:09.817Z,48.45
2022-07-29T02:01:41.080Z,48.47
2022-07-29T02:04:11.628Z,48.26
2022-07-29T02:07:04.285Z,48.12
2022-07-29T02:09:36.294Z,49.15
2022-07-29T02:12:06.046Z,48.79
2022-07-29T02:14:38.387Z,49.45
2022-07-29T02:17:07.475Z,49.21
2022-07-29T02:19:39.499Z,49.74
2022-07-29T02:22:09.015Z,49.49
2022-07-29T02:24:38.605Z,50.90
2022-07-29T02:27:08.846Z,51.68
2022-07-29T02:29:38.837Z,52.59
2022-07-29T02:32:08.755Z,52.09
2022-07-29T02:34:37.839Z,52.40
2022-07-29T02:37:06.855Z,51.74
2022-07-29T02:39:36.116Z,52.54
2022-07-29T02:42:11.481Z,52.71
2022-07-29T02:44:40.441Z,51.90
2022-07-29T02:47:25.432Z,51.42
2022-07-29T02:49:55.486Z,51.59
2022-07-29T02:52:39.087Z,50.99
2022-07-29T02:55:28.375Z,51.36
2022-07-29T02:58:03.597Z,51.54
2022-07-29T03:00:36.446Z,52.15
2022-07-29T03:03:07.805Z,52.08
2022-07-29T03:05:36.736Z,51.40
2022-07-29T03:08:08.645Z,51.02
2022-07-29T03:10:39.287Z,51.02
2022-07-29T03:13:09.030Z,50.43
2022-07-29T03:15:38.103Z,49.46
2022-07-29T03:18:08.298Z,49.42
2022-07-29T03:20:37.085Z,49.25
2022-07-29T03:23:05.886Z,48.97
2022-07-29T03:25:34.436Z,49.39
2022-07-29T03:28:02.896Z,49.76
2022-07-29T03:30:32.242Z,49.57
2022-07-29T03:33:01.125Z,49.37
2022-07-29T03:35:33.128Z,49.34
2022-07-29T03:38:01.958Z,49.00
2022-07-29T03:40:55.965Z,49.18
2022-07-29T03:43:27.047Z,49.34
2022-07-29T03:45:56.730Z,49.38
2022-07-29T03:48:26.896Z,49.56
2022-07-29T03:50:55.406Z,49.55
2022-07-29T03:53:24.304Z,49.85
2022-07-29T03:55:55.654Z,50.84
2022-07-29T03:58:24.788Z,52.53
2022-07-29T04:00:54.226Z,51.30
2022-07-29T04:03:23.001Z,50.62
2022-07-29T04:06:08.736Z,50.59
2022-07-29T04:08:37.457Z,50.84
2022-07-29T04:11:07.078Z,51.88
2022-07-29T04:13:35.486Z,52.76
2022-07-29T04:16:04.531Z,53.92
2022-07-29T04:18:32.926Z,54.46
2022-07-29T04:21:02.185Z,54.40
2022-07-29T04:23:34.819Z,54.60
2022-07-29T04:26:03.535Z,54.66
2022-07-29T04:28:32.666Z,54.14
2022-07-29T04:31:01.144Z,54.03
2022-07-29T04:33:29.618Z,53.56
2022-07-29T04:35:58.425Z,53.04
2022-07-29T04:38:27.846Z,52.90
2022-07-29T04:40:56.319Z,53.74
2022-07-29T04:43:24.908Z,53.05
2022-07-29T04:45:53.442Z,53.78
2022-07-29T04:48:26.686Z,54.99
2022-07-29T04:50:57.977Z,54.49
2022-07-29T04:53:27.987Z,55.15
2022-07-29T04:55:56.447Z,55.47
2022-07-29T04:58:25.485Z,56.94
2022-07-29T05:00:54.036Z,56.13
2022-07-29T05:03:22.525Z,56.40
2022-07-29T05:05:51.256Z,55.08
2022-07-29T05:08:19.806Z,54.60
2022-07-29T05:10:48.267Z,54.28
2022-07-29T05:13:17.648Z,53.91
2022-07-29T05:15:46.113Z,53.80
2022-07-29T05:18:15.547Z,53.36
2022-07-29T05:20:44.287Z,53.51
2022-07-29T05:23:14.148Z,53.16
2022-07-29T05:25:44.025Z,53.25
2022-07-29T05:28:13.681Z,54.85
2022-07-29T05:30:42.121Z,55.09
2022-07-29T05:33:35.124Z,53.79
2022-07-29T05:36:00.760Z,52.87
2022-07-29T05:38:30.410Z,52.38
2022-07-29T05:41:00.341Z,53.38
2022-07-29T05:43:29.482Z,54.63
2022-07-29T05:45:58.241Z,53.85
2022-07-29T05:48:27.148Z,52.88
2022-07-29T05:50:56.134Z,52.44
2022-07-29T05:53:24.596Z,51.50
2022-07-29T05:55:53.511Z,51.33
2022-07-29T05:58:22.237Z,51.25
2022-07-29T06:00:50.719Z,51.10
2022-07-29T06:03:19.190Z,51.44
2022-07-29T06:05:47.713Z,51.90
2022-07-29T06:08:15.923Z,51.27
2022-07-29T06:10:45.241Z,50.39
2022-07-29T06:13:14.370Z,50.73
2022-07-29T06:15:43.660Z,49.86
2022-07-29T06:18:14.592Z,50.63
2022-07-29T06:20:43.434Z,50.29
2022-07-29T06:23:11.769Z,50.95
2022-07-29T06:25:41.939Z,51.46
2022-07-29T06:28:10.739Z,51.78
2022-07-29T06:30:40.715Z,52.22
2022-07-29T06:33:09.600Z,50.99
2022-07-29T06:35:42.283Z,50.54
2022-07-29T06:38:31.816Z,50.14
2022-07-29T06:41:12.289Z,51.28
2022-07-29T06:43:51.854Z,51.13
2022-07-29T06:46:23.683Z,50.29
2022-07-29T06:48:53.572Z,49.96
2022-07-29T06:51:23.817Z,49.48
2022-07-29T06:54:00.331Z,49.10
2022-07-29T06:56:38.484Z,48.86
2022-07-29T06:59:10.325Z,49.07
2022-07-29T07:01:40.489Z,48.87
2022-07-29T07:04:10.147Z,48.99
2022-07-29T07:06:39.129Z,49.06
2022-07-29T07:09:08.190Z,49.25
2022-07-29T07:11:36.909Z,49.53
2022-07-29T07:14:05.303Z,49.71
2022-07-29T07:16:33.949Z,49.26
2022-07-29T07:19:02.892Z,50.26
2022-07-29T07:21:31.615Z,50.48
2022-07-29T07:24:01.118Z,49.67
2022-07-29T07:26:29.738Z,49.89
2022-07-29T07:28:58.238Z,49.74
2022-07-29T07:31:26.652Z,49.40
2022-07-29T07:33:55.253Z,48.50
2022-07-29T07:36:24.409Z,48.63
2022-07-29T07:38:52.773Z,48.20
2022-07-29T07:41:22.138Z,47.95
2022-07-29T07:43:50.650Z,48.17
2022-07-29T07:46:19.119Z,47.62
2022-07-29T07:48:47.884Z,47.16
2022-07-29T07:51:16.468Z,46.67
2022-07-29T07:53:46.130Z,46.44
2022-07-29T07:56:14.798Z,46.01
2022-07-29T07:58:43.219Z,45.66
2022-07-29T08:01:11.847Z,46.27
2022-07-29T08:03:40.732Z,46.11
2022-07-29T08:06:09.028Z,46.25
2022-07-29T08:08:37.421Z,45.71
2022-07-29T08:11:09.716Z,45.59
2022-07-29T08:13:39.718Z,44.88
2022-07-29T08:16:13.525Z,44.54
2022-07-29T08:18:43.597Z,44.28
2022-07-29T08:21:14.793Z,43.99
2022-07-29T08:23:58.938Z,43.47
2022-07-29T08:26:29.749Z,43.05
2022-07-29T08:28:58.109Z,43.42
2022-07-29T08:31:26.518Z,42.99
2022-07-29T08:33:57.462Z,43.82
2022-07-29T08:36:27.808Z,43.36
2022-07-29T08:38:56.630Z,43.48
2022-07-29T08:41:25.098Z,43.51
2022-07-29T08:43:53.966Z,42.74
2022-07-29T08:46:23.385Z,42.83
2022-07-29T08:48:51.970Z,42.39
2022-07-29T08:51:22.097Z,42.43
2022-07-29T08:53:51.740Z,42.78
2022-07-29T08:56:21.193Z,43.48
2022-07-29T08:58:51.886Z,43.27
2022-07-29T09:01:35.278Z,42.93
2022-07-29T09:04:09.384Z,43.15
2022-07-29T09:06:39.843Z,42.92
2022-07-29T09:09:09.037Z,43.05
2022-07-29T09:11:37.652Z,43.21
2022-07-29T09:14:06.890Z,43.47
2022-07-29T09:16:57.635Z,43.11
2022-07-29T09:19:36.279Z,42.63
2022-07-29T09:22:06.829Z,42.71
2022-07-29T09:24:44.087Z,42.76
2022-07-29T09:27:23.329Z,42.44
2022-07-29T09:30:05.054Z,41.77
2022-07-29T09:32:55.756Z,42.53
2022-07-29T09:35:26.408Z,42.08
2022-07-29T09:37:55.299Z,42.05
2022-07-29T09:40:27.585Z,41.83
2022-07-29T09:42:58.707Z,42.09
2022-07-29T09:45:33.814Z,42.51
2022-07-29T09:48:22.728Z,42.69
2022-07-29T09:50:51.876Z,42.24
2022-07-29T09:53:38.371Z,42.29
2022-07-29T09:56:07.211Z,42.79
2022-07-29T09:58:35.869Z,42.54
2022-07-29T10:01:05.163Z,42.64
2022-07-29T10:03:33.692Z,42.71
2022-07-29T10:06:20.631Z,42.91
2022-07-29T10:08:51.131Z,43.65
2022-07-29T10:11:20.460Z,43.51
2022-07-29T10:13:49.898Z,43.11
2022-07-29T10:16:19.156Z,42.78
2022-07-29T10:18:48.101Z,42.75
2022-07-29T10:21:35.064Z,42.89
2022-07-29T10:24:06.520Z,42.51
2022-07-29T10:26:35.495Z,42.64
2022-07-29T10:29:03.947Z,42.79
2022-07-29T10:31:50.942Z,42.63
2022-07-29T10:34:50.017Z,41.87
2022-07-29T10:37:38.337Z,41.76
2022-07-29T10:41:08.758Z,42.33
2022-07-29T10:43:43.287Z,41.96
2022-07-29T10:46:13.634Z,41.85
2022-07-29T10:49:09.191Z,42.05
2022-07-29T10:52:00.853Z,41.80
2022-07-29T10:54:48.816Z,41.66
2022-07-29T10:57:17.809Z,42.39
2022-07-29T10:59:49.369Z,42.68
2022-07-29T11:02:43.481Z,42.23
2022-07-29T11:05:21.746Z,42.27
2022-07-29T11:08:20.206Z,42.38
2022-07-29T11:10:51.549Z,41.61
2022-07-29T11:13:44.591Z,41.51
2022-07-29T11:16:16.681Z,41.55
2022-07-29T11:19:26.590Z,41.45
2022-07-29T11:21:59.917Z,41.46
2022-07-29T11:24:32.476Z,41.58
2022-07-29T11:27:13.223Z,41.37
2022-07-29T11:29:52.561Z,41.36
2022-07-29T11:32:24.295Z,40.67
2022-07-29T11:35:19.268Z,40.92
2022-07-29T11:38:32.040Z,40.51
2022-07-29T11:41:19.020Z,40.83
2022-07-29T11:43:59.051Z,40.66
2022-07-29T11:46:54.003Z,40.43
2022-07-29T11:49:32.158Z,40.10
2022-07-29T11:52:03.259Z,40.44
2022-07-29T11:57:36.086Z,40.72
2022-07-29T12:00:14.656Z,40.87
2022-07-29T12:02:48.474Z,40.29
2022-07-29T12:05:35.849Z,40.48
2022-07-29T12:07:02.300Z,40.86
2022-07-29T12:08:14.752Z,40.90
2022-07-29T12:10:44.215Z,40.88
2022-07-29T12:13:13.788Z,40.90
2022-07-29T12:15:56.425Z,40.47
2022-07-29T12:18:29.150Z,40.49
2022-07-29T12:21:05.067Z,40.82
2022-07-29T12:23:35.586Z,40.85
2022-07-29T12:26:10.649Z,40.60
2022-07-29T12:28:40.484Z,40.21
2022-07-29T12:31:42.431Z,40.26
2022-07-29T12:34:04.460Z,40.44
2022-07-29T12:36:32.777Z,39.83
2022-07-29T12:39:01.296Z,40.42
2022-07-29T12:41:30.528Z,39.83
2022-07-29T12:43:58.858Z,40.07
2022-07-29T12:46:27.232Z,39.40
2022-07-29T12:48:57.711Z,39.27
2022-07-29T12:51:40.238Z,39.29
2022-07-29T12:54:14.944Z,38.53
2022-07-29T12:56:45.776Z,38.82
2022-07-29T12:59:20.160Z,38.60
2022-07-29T13:01:51.661Z,38.44
2022-07-29T13:04:28.799Z,37.69
2022-07-29T13:07:07.649Z,36.81
2022-07-29T13:09:44.361Z,36.98
2022-07-29T13:12:14.874Z,36.95
2022-07-29T13:14:45.739Z,37.12
2022-07-29T13:17:24.311Z,37.37
2022-07-29T13:19:55.083Z,36.76
2022-07-29T13:22:25.297Z,36.64
2022-07-29T13:24:59.239Z,36.62
2022-07-29T13:27:33.438Z,36.65
2022-07-29T13:30:03.817Z,37.47
2022-07-29T13:32:35.639Z,37.41
2022-07-29T13:35:07.720Z,37.37
2022-07-29T13:37:39.807Z,37.54
2022-07-29T13:40:09.722Z,38.08
2022-07-29T13:42:38.246Z,37.32
2022-07-29T13:45:08.130Z,37.55
2022-07-29T13:47:36.911Z,37.53
2022-07-29T13:50:07.714Z,37.23
2022-07-29T13:52:36.098Z,37.10
2022-07-29T13:55:05.958Z,36.66
2022-07-29T13:57:34.420Z,36.23
2022-07-29T14:00:03.010Z,36.25
2022-07-29T14:02:36.931Z,36.02
2022-07-29T14:05:08.631Z,35.95
2022-07-29T14:07:40.101Z,36.40
2022-07-29T14:10:08.839Z,36.19
2022-07-29T14:12:37.517Z,36.45
2022-07-29T14:15:06.661Z,35.99
2022-07-29T14:17:35.589Z,36.12
2022-07-29T14:20:05.308Z,35.67
2022-07-29T14:22:37.840Z,35.82
2022-07-29T14:25:14.469Z,35.96
2022-07-29T14:27:44.968Z,35.80
2022-07-29T14:30:13.751Z,36.15
2022-07-29T14:32:42.602Z,35.58
2022-07-29T14:35:11.142Z,35.88
2022-07-29T14:37:40.846Z,37.01
2022-07-29T14:40:10.441Z,36.77
2022-07-29T14:42:40.127Z,36.95
2022-07-29T14:45:10.214Z,37.44
2022-07-29T14:47:39.490Z,37.79
2022-07-29T14:50:08.872Z,38.96
2022-07-29T14:52:37.563Z,39.12
2022-07-29T14:55:19.425Z,38.67
2022-07-29T14:57:49.577Z,39.12
2022-07-29T15:00:18.993Z,38.96
2022-07-29T15:03:01.259Z,39.68
2022-07-29T15:05:32.536Z,39.49
2022-07-29T15:08:01.039Z,39.11
2022-07-29T15:10:29.934Z,40.09
2022-07-29T15:13:01.420Z,39.98
2022-07-29T15:15:30.065Z,40.06
2022-07-29T15:17:58.303Z,40.12
2022-07-29T15:20:28.277Z,40.21
2022-07-29T15:22:57.265Z,40.05
2022-07-29T15:25:27.970Z,40.20
2022-07-29T15:28:01.226Z,40.34
2022-07-29T15:30:34.777Z,40.21
2022-07-29T15:33:04.554Z,39.87
2022-07-29T15:35:33.485Z,40.31
2022-07-29T15:38:09.600Z,40.56
2022-07-29T15:40:41.500Z,41.08
2022-07-29T15:43:10.180Z,42.03
2022-07-29T15:45:40.760Z,42.07
2022-07-29T15:48:14.628Z,41.73
2022-07-29T15:50:47.048Z,42.08
2022-07-29T15:53:15.775Z,42.45
2022-07-29T15:55:44.488Z,42.63
2022-07-29T15:58:13.298Z,42.47
2022-07-29T16:00:41.757Z,42.30
2022-07-29T16:03:10.490Z,42.50
2022-07-29T16:05:39.016Z,43.12
2022-07-29T16:08:07.446Z,45.16
2022-07-29T16:10:36.637Z,45.86
2022-07-29T16:13:05.002Z,47.32
2022-07-29T16:15:33.321Z,49.44
2022-07-29T16:18:01.840Z,50.72
2022-07-29T16:20:31.506Z,50.68
2022-07-29T16:22:59.777Z,51.78
2022-07-29T16:25:50.236Z,53.22
2022-07-29T16:28:17.480Z,54.50
2022-07-29T16:30:45.937Z,55.15
2022-07-29T16:33:14.322Z,55.50
2022-07-29T16:35:43.135Z,56.29
2022-07-29T16:38:11.447Z,58.78
2022-07-29T16:40:39.596Z,59.53
2022-07-29T16:43:07.891Z,59.58
2022-07-29T16:45:42.569Z,59.44
2022-07-29T16:48:17.319Z,59.38
2022-07-29T16:50:46.912Z,58.64
2022-07-29T16:53:15.066Z,58.58
2022-07-29T16:55:43.146Z,58.45
2022-07-29T16:58:12.157Z,57.90
2022-07-29T17:00:40.752Z,57.58
2022-07-29T17:03:09.074Z,57.44
2022-07-29T17:05:52.550Z,57.52
2022-07-29T17:08:23.217Z,56.84
2022-07-29T17:10:51.707Z,56.58
2022-07-29T17:13:19.950Z,57.20
2022-07-29T17:15:48.140Z,57.34
2022-07-29T17:18:16.518Z,56.59
2022-07-29T17:20:45.714Z,55.58
2022-07-29T17:23:14.007Z,55.01
2022-07-29T17:25:42.342Z,55.36
2022-07-29T17:28:10.464Z,55.20
2022-07-29T17:30:38.688Z,54.74
2022-07-29T17:33:06.982Z,54.24
2022-07-29T17:35:53.455Z,52.94
2022-07-29T17:38:21.793Z,52.29
2022-07-29T17:40:49.948Z,51.55
2022-07-29T17:43:18.154Z,51.31
2022-07-29T17:45:50.226Z,51.94
2022-07-29T17:48:20.091Z,52.08
2022-07-29T17:50:49.122Z,52.23
2022-07-29T17:53:17.352Z,51.88
2022-07-29T17:55:46.578Z,51.82
2022-07-29T17:58:15.137Z,52.46
2022-07-29T18:00:44.025Z,52.32
2022-07-29T18:03:12.493Z,51.54
2022-07-29T18:05:41.372Z,51.29
2022-07-29T18:08:09.568Z,51.34
2022-07-29T18:10:38.226Z,50.79
2022-07-29T18:13:06.649Z,50.83
2022-07-29T18:15:35.147Z,51.33
2022-07-29T18:18:03.327Z,50.81
2022-07-29T18:20:31.702Z,50.85
2022-07-29T18:23:00.076Z,51.16
2022-07-29T18:25:29.094Z,51.86
2022-07-29T18:28:00.524Z,51.82
2022-07-29T18:30:29.947Z,51.82
2022-07-29T18:33:20.686Z,52.54
2022-07-29T18:35:51.142Z,53.22
2022-07-29T18:38:22.017Z,53.95
2022-07-29T18:40:51.158Z,53.14
2022-07-29T18:43:19.337Z,52.29
2022-07-29T18:45:49.988Z,52.93
2022-07-29T18:48:18.905Z,52.50
2022-07-29T18:50:47.034Z,52.51
2022-07-29T18:53:15.317Z,52.31
2022-07-29T18:55:43.647Z,52.14
2022-07-29T18:58:11.976Z,52.66
2022-07-29T19:00:40.371Z,53.67
2022-07-29T19:03:10.327Z,55.28
2022-07-29T19:05:38.731Z,57.22
2022-07-29T19:08:07.151Z,59.41
2022-07-29T19:10:35.397Z,61.23
2022-07-29T19:13:05.761Z,63.69
2022-07-29T19:15:34.357Z,63.55
2022-07-29T19:18:02.730Z,64.35
2022-07-29T19:20:31.081Z,63.92
2022-07-29T19:22:59.770Z,63.10
2022-07-29T19:25:28.354Z,60.82
2022-07-29T19:27:58.753Z,59.65
2022-07-29T19:30:27.883Z,58.31
2022-07-29T19:32:56.325Z,58.19
2022-07-29T19:35:24.825Z,57.94
2022-07-29T19:37:56.921Z,58.28
2022-07-29T19:40:26.690Z,57.26
2022-07-29T19:42:55.511Z,56.94
2022-07-29T19:45:26.093Z,57.45
2022-07-29T19:48:00.731Z,58.97
2022-07-29T19:50:30.365Z,57.96
2022-07-29T19:52:59.446Z,57.44
2022-07-29T19:55:28.360Z,58.30
2022-07-29T19:57:59.436Z,58.82
2022-07-29T20:00:31.477Z,59.74
2022-07-29T20:03:00.144Z,59.07
2022-07-29T20:05:28.888Z,60.28
2022-07-29T20:07:57.434Z,60.74
2022-07-29T20:10:26.073Z,61.19
2022-07-29T20:12:55.197Z,60.60
2022-07-29T20:15:24.294Z,60.12
2022-07-29T20:17:57.201Z,60.85
2022-07-29T20:20:26.377Z,59.95
2022-07-29T20:22:54.946Z,59.82
2022-07-29T20:25:23.937Z,60.66
2022-07-29T20:27:55.336Z,60.79
2022-07-29T20:30:23.991Z,60.75
2022-07-29T20:32:52.348Z,60.64
2022-07-29T20:35:22.575Z,61.57
2022-07-29T20:37:56.323Z,61.50
2022-07-29T20:40:26.411Z,60.15
2022-07-29T20:42:55.531Z,59.05
2022-07-29T20:45:24.175Z,60.81
2022-07-29T20:47:53.219Z,60.18
2022-07-29T20:50:24.325Z,60.77
2022-07-29T20:52:53.266Z,61.39
2022-07-29T20:55:21.916Z,62.32
2022-07-29T20:57:50.545Z,62.25
2022-07-29T21:00:19.067Z,61.67
2022-07-29T21:02:47.595Z,61.58
2022-07-29T21:05:17.724Z,62.13
2022-07-29T21:07:46.267Z,62.61
2022-07-29T21:10:15.505Z,63.30
2022-07-29T21:12:46.787Z,64.71
2022-07-29T21:15:15.404Z,65.02
2022-07-29T21:17:47.631Z,64.88
2022-07-29T21:20:19.164Z,65.27
2022-07-29T21:22:47.730Z,63.68
2022-07-29T21:25:16.087Z,63.90
2022-07-29T21:28:03.074Z,63.93
2022-07-29T21:30:31.454Z,63.71
2022-07-29T21:33:00.106Z,64.84
2022-07-29T21:36:02.151Z,63.15
2022-07-29T21:38:18.694Z,62.40
2022-07-29T21:40:48.315Z,61.96
2022-07-29T21:43:17.818Z,61.90
2022-07-29T21:45:52.705Z,61.97
2022-07-29T21:48:21.925Z,63.07
2022-07-29T21:50:51.950Z,63.14
2022-07-29T21:53:22.905Z,62.03
2022-07-29T21:55:54.005Z,62.76
2022-07-29T21:58:25.045Z,64.49
2022-07-29T22:00:54.149Z,63.44
2022-07-29T22:03:22.782Z,64.91
2022-07-29T22:05:51.235Z,65.39
2022-07-29T22:08:22.043Z,64.66
2022-07-29T22:10:50.615Z,64.82
2022-07-29T22:13:18.965Z,64.18
2022-07-29T22:15:48.815Z,64.69
2022-07-29T22:18:20.921Z,64.40
2022-07-29T22:20:50.523Z,64.33
2022-07-29T22:23:18.985Z,64.93
2022-07-29T22:25:47.427Z,64.60
2022-07-29T22:28:16.088Z,63.92
2022-07-29T22:30:44.389Z,63.88
2022-07-29T22:33:17.578Z,64.69
2022-07-29T22:35:48.690Z,65.19
2022-07-29T22:38:18.810Z,62.70
2022-07-29T22:40:48.700Z,63.05
2022-07-29T22:43:19.228Z,63.97
2022-07-29T22:45:47.574Z,64.12
2022-07-29T22:48:16.735Z,65.09
2022-07-29T22:50:45.097Z,64.76
2022-07-29T22:53:13.386Z,64.48
2022-07-29T22:55:42.264Z,64.49
2022-07-29T22:58:10.777Z,65.11
2022-07-29T23:00:39.221Z,65.11
2022-07-29T23:03:07.817Z,65.67
2022-07-29T23:05:36.688Z,65.38
2022-07-29T23:08:07.572Z,64.80
2022-07-29T23:10:36.486Z,64.22
2022-07-29T23:13:04.803Z,64.35
2022-07-29T23:15:33.283Z,64.48
2022-07-29T23:18:05.314Z,64.28
2022-07-29T23:20:33.893Z,64.13
2022-07-29T23:23:02.483Z,64.42
2022-07-29T23:25:31.435Z,64.67
2022-07-29T23:27:59.807Z,64.18
2022-07-29T23:30:28.555Z,64.66
2022-07-29T23:32:57.715Z,63.45
2022-07-29T23:35:26.230Z,63.28
2022-07-29T23:37:54.773Z,63.34
2022-07-29T23:40:23.394Z,62.53
2022-07-29T23:42:51.913Z,63.22
2022-07-29T23:45:20.524Z,62.99
2022-07-29T23:47:49.183Z,62.85
2022-07-29T23:50:17.825Z,62.88
2022-07-29T23:52:46.314Z,62.73
2022-07-29T23:55:37.957Z,61.87
2022-07-29T23:58:03.523Z,62.06
